createdAt,value
2023-03-16T01:43:42.788Z,23.43
2023-03-16T01:44:42.763Z,23.43
2023-03-16T01:45:42.769Z,23.43
2023-03-16T01:46:42.763Z,23.43
2023-03-16T01:47:42.740Z,23.43
2023-03-16T01:48:42.759Z,23.43
2023-03-16T01:49:42.670Z,23.44
2023-03-16T01:50:42.639Z,23.43
2023-03-16T01:51:42.630Z,23.43
2023-03-16T01:52:42.611Z,23.44
2023-03-16T01:53:42.606Z,23.43
2023-03-16T01:54:42.571Z,23.43
2023-03-16T01:55:42.587Z,23.43
2023-03-16T01:56:42.528Z,23.43
2023-03-16T01:57:42.549Z,23.43
2023-03-16T01:58:49.400Z,23.42
2023-03-16T01:59:42.480Z,23.42
2023-03-16T02:00:42.449Z,23.42
2023-03-16T02:01:42.500Z,23.42
2023-03-16T02:02:42.442Z,23.42
2023-03-16T02:03:42.420Z,23.42
2023-03-16T02:04:42.510Z,23.43
2023-03-16T02:05:42.419Z,23.43
2023-03-16T02:06:42.331Z,23.43
2023-03-16T02:07:42.325Z,23.43
2023-03-16T02:08:42.306Z,23.43
2023-03-16T02:09:42.291Z,23.43
2023-03-16T02:10:42.260Z,23.43
2023-03-16T02:11:42.251Z,23.44
2023-03-16T02:12:42.323Z,23.44
2023-03-16T02:13:42.196Z,23.44
2023-03-16T02:14:42.196Z,23.45
2023-03-16T02:15:42.215Z,23.44
2023-03-16T02:16:42.142Z,23.44
2023-03-16T02:17:42.129Z,23.44
2023-03-16T02:18:42.128Z,23.44
2023-03-16T02:19:42.087Z,23.43
2023-03-16T02:20:42.072Z,23.43
2023-03-16T02:21:42.065Z,23.43
2023-03-16T02:22:42.050Z,23.43
2023-03-16T02:23:42.040Z,23.43
2023-03-16T02:24:42.025Z,23.44
2023-03-16T02:25:41.998Z,23.43
2023-03-16T02:26:41.968Z,23.43
2023-03-16T02:27:42.087Z,23.43
2023-03-16T02:28:41.955Z,23.41
2023-03-16T02:29:41.914Z,23.41
2023-03-16T02:30:41.933Z,23.41
2023-03-16T02:31:41.914Z,23.41
2023-03-16T02:32:41.942Z,23.41
2023-03-16T02:33:41.850Z,23.41
2023-03-16T02:34:41.845Z,23.42
2023-03-16T02:35:41.876Z,23.42
2023-03-16T02:36:41.809Z,23.41
2023-03-16T02:37:41.763Z,23.42
2023-03-16T02:38:41.786Z,23.42
2023-03-16T02:39:41.720Z,23.42
2023-03-16T02:40:41.722Z,23.42
2023-03-16T08:07:35.968Z,24.75
2023-03-16T08:08:35.127Z,24.70
2023-03-16T08:09:35.065Z,24.66
2023-03-16T08:10:35.045Z,24.62
2023-03-16T08:11:35.019Z,24.60
2023-03-16T08:12:35.006Z,24.57
2023-03-16T08:13:34.951Z,24.55
2023-03-16T08:14:34.949Z,24.53
2023-03-16T08:15:34.932Z,24.51
2023-03-16T08:16:34.973Z,24.49
2023-03-16T08:17:34.871Z,24.48
2023-03-16T08:18:34.826Z,24.48
2023-03-16T08:19:34.766Z,24.46
2023-03-16T08:20:34.724Z,24.44
2023-03-16T08:21:40.117Z,24.43
2023-03-16T08:23:34.656Z,24.39
2023-03-16T08:24:34.598Z,24.37
2023-03-16T08:25:35.093Z,24.33
2023-03-16T08:26:34.549Z,24.34
2023-03-16T08:27:35.073Z,24.34
2023-03-16T08:28:34.573Z,24.33
2023-03-16T08:29:34.378Z,24.33
2023-03-16T08:30:34.468Z,24.33
2023-03-16T08:31:34.373Z,24.33
2023-03-16T08:32:34.306Z,24.33
2023-03-16T08:33:34.357Z,24.34
2023-03-16T08:34:34.322Z,24.34
2023-03-16T08:35:34.177Z,24.36
2023-03-16T08:36:34.251Z,24.36
2023-03-16T08:37:34.074Z,24.39
2023-03-16T08:38:34.245Z,24.40
2023-03-16T08:39:34.047Z,24.42
2023-03-16T08:40:34.054Z,24.42
2023-03-16T08:41:33.924Z,24.43
2023-03-16T08:42:33.909Z,24.44
2023-03-16T08:43:34.060Z,24.46
2023-03-16T08:44:34.367Z,24.47
2023-03-16T08:45:34.030Z,24.49
2023-03-16T08:46:33.794Z,24.50
2023-03-16T08:48:33.677Z,24.53
2023-03-16T08:49:33.643Z,24.54
2023-03-16T08:50:33.560Z,24.55
2023-03-16T08:52:33.528Z,24.56
2023-03-16T08:53:33.452Z,24.58
2023-03-16T08:54:33.477Z,24.59
2023-03-16T08:55:33.355Z,24.61
2023-03-16T08:56:33.370Z,24.61
2023-03-16T08:57:33.305Z,24.62
2023-03-16T08:58:33.290Z,24.63
2023-03-16T08:59:33.202Z,24.63
2023-03-16T09:00:33.188Z,24.64
2023-03-16T09:01:33.191Z,24.65
2023-03-16T09:02:33.102Z,24.67
2023-03-16T09:03:33.068Z,24.69
2023-03-16T09:04:33.269Z,24.69
2023-03-16T09:06:33.000Z,24.72
2023-03-16T09:07:32.897Z,24.73
2023-03-16T09:08:32.897Z,24.73
2023-03-16T09:09:32.837Z,24.74
2023-03-16T09:11:32.737Z,24.75
2023-03-16T09:12:32.670Z,24.75
2023-03-16T09:13:44.091Z,24.75
2023-03-16T09:14:32.637Z,24.75
2023-03-16T09:15:32.606Z,24.76
2023-03-16T09:16:32.607Z,24.76
2023-03-16T09:17:32.566Z,24.78
2023-03-16T09:18:32.464Z,24.79
2023-03-16T09:19:47.839Z,24.78
2023-03-16T09:21:32.358Z,24.80
2023-03-16T09:22:32.360Z,24.81
2023-03-16T09:23:32.280Z,24.82
2023-03-16T09:24:32.245Z,24.82
2023-03-16T09:26:32.127Z,24.83
2023-03-16T09:27:32.205Z,24.83
2023-03-16T09:28:32.026Z,24.84
2023-03-16T09:29:32.008Z,24.85
2023-03-16T09:31:31.951Z,24.87
2023-03-16T09:32:31.912Z,24.87
2023-03-16T09:33:31.796Z,24.89
2023-03-16T09:34:33.209Z,24.88
2023-03-16T09:35:33.231Z,24.88
2023-03-16T09:36:31.952Z,24.89
2023-03-16T09:37:44.581Z,24.89
2023-03-16T09:39:31.815Z,24.90
2023-03-16T13:21:23.074Z,24.77
2023-03-16T13:30:22.796Z,24.76
2023-03-16T13:31:22.751Z,24.75
2023-03-16T13:32:22.656Z,24.76
2023-03-16T13:33:22.624Z,24.77
2023-03-16T13:34:22.601Z,24.78
2023-03-16T13:35:22.559Z,24.77
2023-03-16T13:36:22.535Z,24.78
2023-03-16T13:37:22.505Z,24.78
2023-03-16T13:38:22.502Z,24.78
2023-03-16T13:39:22.452Z,24.78
2023-03-16T13:40:22.430Z,24.78
2023-03-16T13:41:22.354Z,24.76
2023-03-16T13:42:22.333Z,24.77
2023-03-16T13:47:32.881Z,24.47
2023-03-16T13:48:32.819Z,24.65
2023-03-16T13:49:32.817Z,24.70
2023-03-16T13:50:32.782Z,24.74
2023-03-16T13:51:32.782Z,24.75
2023-03-16T13:52:32.758Z,24.75
2023-03-16T13:53:32.794Z,24.75
2023-03-16T13:54:32.654Z,24.76
2023-03-16T13:55:32.672Z,24.75
2023-03-16T13:56:32.651Z,24.75
2023-03-16T13:57:32.586Z,24.75
2023-03-16T13:58:34.897Z,24.75
2023-03-16T13:59:32.746Z,24.75
2023-03-16T14:00:32.537Z,24.76
2023-03-16T14:01:32.643Z,24.75
2023-03-16T14:02:32.731Z,24.75
2023-03-16T14:03:32.436Z,24.76
2023-03-16T14:04:32.435Z,24.75
2023-03-16T14:05:32.398Z,24.75
2023-03-16T14:06:32.408Z,24.76
2023-03-16T14:07:33.013Z,24.74
2023-03-16T14:08:32.344Z,24.75
2023-03-16T14:09:32.264Z,24.74
2023-03-16T14:10:32.249Z,24.74
2023-03-16T14:11:32.234Z,24.74
2023-03-16T14:12:32.197Z,24.74
2023-03-16T14:13:32.212Z,24.74
2023-03-16T14:14:32.171Z,24.74
2023-03-16T14:15:32.140Z,24.73
2023-03-16T14:16:32.320Z,24.73
2023-03-16T14:17:32.236Z,24.72
2023-03-16T14:18:32.040Z,24.72
2023-03-16T14:19:32.018Z,24.71
2023-03-16T14:20:34.995Z,24.70
2023-03-16T14:21:32.971Z,24.70
2023-03-16T14:22:31.949Z,24.71
2023-03-16T14:23:32.473Z,24.71
2023-03-16T14:24:31.938Z,24.71
2023-03-16T14:25:32.084Z,24.70
2023-03-16T14:26:31.818Z,24.69
2023-03-16T14:27:31.795Z,24.70
2023-03-16T14:28:32.417Z,24.70
2023-03-16T14:29:31.787Z,24.70
2023-03-16T14:30:31.727Z,24.70
2023-03-16T14:31:31.706Z,24.69
2023-03-16T14:32:31.748Z,24.68
2023-03-16T14:33:31.644Z,24.68
2023-03-16T14:34:31.673Z,24.68
2023-03-16T14:35:32.031Z,24.68
2023-03-16T14:36:31.549Z,24.68
2023-03-16T14:37:31.588Z,24.68
2023-03-16T14:38:31.489Z,24.67
2023-03-16T14:39:31.523Z,24.68
2023-03-16T14:40:31.465Z,24.67
2023-03-16T14:41:31.409Z,24.68
2023-03-16T14:42:31.374Z,24.68
2023-03-16T14:43:31.440Z,24.70
2023-03-16T14:44:31.336Z,24.69
2023-03-16T14:45:31.619Z,24.69
2023-03-16T14:46:31.317Z,24.68
2023-03-16T14:47:31.276Z,24.68
2023-03-16T14:48:31.208Z,24.68
2023-03-16T14:49:31.205Z,24.68
2023-03-16T14:50:31.143Z,24.68
2023-03-16T14:51:31.114Z,24.67
2023-03-16T14:52:31.101Z,24.68
2023-03-16T14:53:31.107Z,24.68
2023-03-16T14:54:31.515Z,24.68
2023-03-16T14:55:31.557Z,24.67
2023-03-16T14:56:30.959Z,24.68
2023-03-16T14:57:30.917Z,24.67
2023-03-16T14:58:30.922Z,24.68
2023-03-16T14:59:30.913Z,24.68
2023-03-16T15:00:32.963Z,24.68
2023-03-16T15:01:30.821Z,24.68
2023-03-16T15:02:30.836Z,24.68
2023-03-16T15:03:30.769Z,24.70
2023-03-16T15:04:30.751Z,24.73
2023-03-16T15:05:31.109Z,24.86
2023-03-16T15:06:30.645Z,25.19
2023-03-16T15:07:30.656Z,25.62
2023-03-16T15:08:30.581Z,26.02
2023-03-16T15:09:31.517Z,26.39
2023-03-16T15:10:30.827Z,26.70
2023-03-16T15:11:30.556Z,26.95
2023-03-16T15:12:30.429Z,27.15
2023-03-16T15:13:30.394Z,27.31
2023-03-16T15:14:30.391Z,27.42
2023-03-16T15:15:30.312Z,27.50
2023-03-16T15:16:30.288Z,27.51
2023-03-16T15:17:30.227Z,27.49
2023-03-16T15:18:30.175Z,27.39
2023-03-16T15:19:30.289Z,27.18
2023-03-16T15:20:30.574Z,26.90
2023-03-16T15:21:30.055Z,26.65
2023-03-16T15:22:30.026Z,26.41
2023-03-16T15:23:29.969Z,26.22
2023-03-16T15:24:29.916Z,26.06
2023-03-16T15:25:29.953Z,25.90
2023-03-16T15:26:29.880Z,25.78
2023-03-16T15:27:29.838Z,25.67
2023-03-16T15:28:29.803Z,25.57
2023-03-16T15:29:29.775Z,25.50
2023-03-16T15:30:29.922Z,25.42
2023-03-16T15:31:29.798Z,25.35
2023-03-16T15:32:29.759Z,25.28
2023-03-16T15:33:29.634Z,25.22
2023-03-16T15:34:29.594Z,25.16
2023-03-16T15:35:29.581Z,25.12
2023-03-16T15:36:29.546Z,25.07
2023-03-16T15:37:29.552Z,25.03
2023-03-16T15:38:29.470Z,25.01
2023-03-16T15:39:29.430Z,24.98
2023-03-16T15:40:29.614Z,24.95
2023-03-16T15:41:35.243Z,24.91
2023-03-16T15:42:29.604Z,24.89
2023-03-16T15:43:29.341Z,24.86
2023-03-16T15:44:29.317Z,24.83
2023-03-16T15:45:29.297Z,24.81
2023-03-16T15:46:29.266Z,24.80
2023-03-16T15:47:29.200Z,24.78
2023-03-16T15:48:29.185Z,24.76
2023-03-16T15:49:34.947Z,24.76
2023-03-16T15:50:30.321Z,24.74
2023-03-16T15:51:29.084Z,24.73
2023-03-16T15:52:29.091Z,24.73
2023-03-16T15:53:31.285Z,24.72
2023-03-16T15:54:29.014Z,24.71
2023-03-16T15:55:29.013Z,24.68
2023-03-16T15:56:28.962Z,24.67
2023-03-16T15:57:28.928Z,24.64
2023-03-16T15:58:28.911Z,24.62
2023-03-16T15:59:28.903Z,24.60
2023-03-16T16:00:29.174Z,24.59
2023-03-16T16:01:28.792Z,24.58
2023-03-16T16:02:28.780Z,24.57
2023-03-16T16:03:29.437Z,24.57
2023-03-16T16:04:28.795Z,24.55
2023-03-16T16:05:28.695Z,24.54
2023-03-16T16:06:28.663Z,24.53
2023-03-16T16:07:28.622Z,24.52
2023-03-16T16:08:28.661Z,24.51
2023-03-16T16:09:28.563Z,24.51
2023-03-16T16:10:28.999Z,24.50
2023-03-16T16:11:28.548Z,24.49
2023-03-16T16:12:28.482Z,24.50
2023-03-16T16:13:37.469Z,24.49
2023-03-16T16:14:28.425Z,24.48
2023-03-16T16:15:28.766Z,24.48
2023-03-16T16:16:28.382Z,24.48
2023-03-16T16:17:43.749Z,24.48
2023-03-16T16:18:29.318Z,24.48
2023-03-16T16:19:28.298Z,24.48
2023-03-16T16:20:28.333Z,24.49
2023-03-16T16:21:28.252Z,24.47
2023-03-16T16:22:28.204Z,24.47
2023-03-16T16:23:28.163Z,24.48
2023-03-16T16:24:28.165Z,24.48
2023-03-16T16:25:28.493Z,24.47
2023-03-16T16:26:41.561Z,24.47
2023-03-16T16:27:29.049Z,24.46
2023-03-16T16:28:28.035Z,24.44
2023-03-16T16:29:28.029Z,24.44
2023-03-16T16:30:27.957Z,24.42
2023-03-16T16:31:27.995Z,24.41
2023-03-16T16:32:27.947Z,24.40
2023-03-16T16:33:27.852Z,24.37
2023-03-16T16:34:27.887Z,24.36
2023-03-16T16:35:28.215Z,24.35
2023-03-16T16:36:27.773Z,24.34
2023-03-16T16:37:27.765Z,24.33
2023-03-16T16:38:27.761Z,24.34
2023-03-16T16:39:27.720Z,24.32
2023-03-16T16:40:27.687Z,24.32
2023-03-16T16:41:27.672Z,24.31
2023-03-16T16:42:27.644Z,24.30
2023-03-16T16:43:27.595Z,24.30
2023-03-16T16:44:27.716Z,24.30
2023-03-16T16:45:27.845Z,24.30
2023-03-16T16:46:28.682Z,24.30
2023-03-16T16:47:27.528Z,24.29
2023-03-16T16:48:27.471Z,24.27
2023-03-16T16:49:27.456Z,24.26
2023-03-16T16:50:27.420Z,24.25
2023-03-16T16:51:27.445Z,24.26
2023-03-16T16:52:27.359Z,24.26
2023-03-16T16:53:27.350Z,24.26
2023-03-16T16:54:27.355Z,24.25
2023-03-16T16:55:27.657Z,24.25
2023-03-16T16:56:27.283Z,24.25
2023-03-16T16:57:27.260Z,24.25
2023-03-16T16:58:27.248Z,24.24
2023-03-16T16:59:27.199Z,24.24
2023-03-16T17:00:27.158Z,24.23
2023-03-16T17:01:27.170Z,24.23
2023-03-16T17:02:27.116Z,24.23
2023-03-16T17:03:27.105Z,24.22
2023-03-16T17:04:27.174Z,24.23
2023-03-16T17:05:27.342Z,24.21
2023-03-16T17:06:27.005Z,24.21
2023-03-16T17:07:26.961Z,24.19
2023-03-16T17:08:26.985Z,24.19
2023-03-16T17:09:26.957Z,24.18
2023-03-16T17:10:26.910Z,24.19
2023-03-16T17:11:26.898Z,24.21
2023-03-16T17:12:26.860Z,24.21
2023-03-16T17:13:26.834Z,24.22
2023-03-16T17:14:26.766Z,24.24
2023-03-16T17:15:26.789Z,24.24
2023-03-16T17:16:26.842Z,24.23
2023-03-16T17:17:26.745Z,24.21
2023-03-16T17:18:26.716Z,24.20
2023-03-16T17:19:26.675Z,24.20
2023-03-16T17:20:26.647Z,24.19
2023-03-16T17:21:26.685Z,24.18
2023-03-16T17:22:26.577Z,24.17
2023-03-16T17:23:26.562Z,24.16
2023-03-16T17:24:26.527Z,24.15
2023-03-16T17:25:26.625Z,24.15
2023-03-16T17:26:26.503Z,24.15
2023-03-16T17:27:39.533Z,24.15
2023-03-16T17:28:26.437Z,24.13
2023-03-16T17:29:26.421Z,24.14
2023-03-16T17:30:26.426Z,24.15
2023-03-16T17:31:26.452Z,24.15
2023-03-16T17:32:26.448Z,24.15
2023-03-16T17:33:26.342Z,24.16
2023-03-16T17:34:26.295Z,24.16
2023-03-16T17:35:26.268Z,24.18
2023-03-16T17:36:26.285Z,24.16
2023-03-16T17:37:26.210Z,24.15
2023-03-16T17:38:26.230Z,24.15
2023-03-16T17:39:26.176Z,24.15
2023-03-16T17:40:26.143Z,24.14
2023-03-16T17:41:26.134Z,24.13
2023-03-16T17:42:26.105Z,24.12
2023-03-16T17:43:26.086Z,24.12
2023-03-16T17:44:26.075Z,24.12
2023-03-16T17:45:26.043Z,24.12
2023-03-16T17:46:26.044Z,24.11
2023-03-16T17:47:25.981Z,24.13
2023-03-16T17:48:25.965Z,24.12
2023-03-16T17:49:25.932Z,24.12
2023-03-16T17:50:25.891Z,24.13
2023-03-16T17:51:25.876Z,24.13
2023-03-16T17:52:25.896Z,24.13
2023-03-16T17:53:26.840Z,24.13
2023-03-16T17:54:25.800Z,24.12
2023-03-16T17:55:25.797Z,24.13
2023-03-16T17:56:25.777Z,24.12
2023-03-16T17:57:25.746Z,24.12
2023-03-16T17:58:25.746Z,24.11
2023-03-16T17:59:25.672Z,24.12
2023-03-16T18:00:25.651Z,24.11
2023-03-16T18:01:25.655Z,24.10
2023-03-16T18:02:25.615Z,24.11
2023-03-16T18:03:25.610Z,24.11
2023-03-16T18:04:25.542Z,24.12
2023-03-16T18:05:25.523Z,24.11
2023-03-16T18:06:25.520Z,24.11
2023-03-16T18:07:25.506Z,24.11
2023-03-16T18:08:25.443Z,24.10
2023-03-16T18:09:25.408Z,24.09
2023-03-16T18:10:25.404Z,24.10
2023-03-16T18:11:25.359Z,24.09
2023-03-16T18:12:25.330Z,24.09
2023-03-16T18:13:25.327Z,24.09
2023-03-16T18:14:25.299Z,24.09
2023-03-16T18:15:25.260Z,24.09
2023-03-16T18:16:25.377Z,24.09
2023-03-16T18:17:25.275Z,24.09
2023-03-16T18:18:25.183Z,24.09
2023-03-16T18:19:25.137Z,24.08
2023-03-16T18:20:25.116Z,24.09
2023-03-16T18:21:25.074Z,24.08
2023-03-16T18:22:25.094Z,24.07
2023-03-16T18:23:25.031Z,24.06
2023-03-16T18:24:24.986Z,24.06
2023-03-16T18:25:24.967Z,24.06
2023-03-16T18:26:24.928Z,24.07
2023-03-16T18:27:24.928Z,24.06
2023-03-16T18:28:24.875Z,24.05
2023-03-16T18:29:24.867Z,24.05
2023-03-16T18:30:24.877Z,24.05
2023-03-16T18:31:24.917Z,24.06
2023-03-16T18:32:24.827Z,24.06
2023-03-16T18:33:24.749Z,24.05
2023-03-16T18:34:24.726Z,24.06
2023-03-16T18:35:24.695Z,24.06
2023-03-16T18:36:24.652Z,24.06
2023-03-16T18:37:24.653Z,24.06
2023-03-16T18:38:24.615Z,24.05
2023-03-16T18:39:24.581Z,24.06
2023-03-16T18:40:24.559Z,24.05
2023-03-16T18:41:24.581Z,24.03
2023-03-16T18:42:24.548Z,24.03
2023-03-16T18:43:26.787Z,24.03
2023-03-16T18:44:24.432Z,24.04
2023-03-16T18:45:24.409Z,24.03
2023-03-16T18:46:24.406Z,24.03
2023-03-16T18:47:24.364Z,24.03
2023-03-16T18:48:24.939Z,24.03
2023-03-16T18:49:24.284Z,24.03
2023-03-16T18:50:24.255Z,24.03
2023-03-16T18:51:24.221Z,24.03
2023-03-16T18:52:24.239Z,24.03
2023-03-16T18:53:24.183Z,24.03
2023-03-16T18:54:24.125Z,24.03
2023-03-16T18:55:24.169Z,24.03
2023-03-16T18:56:24.090Z,24.03
2023-03-16T18:57:24.064Z,24.03
2023-03-16T18:58:24.061Z,24.03
2023-03-16T18:59:23.994Z,24.03
2023-03-16T19:00:23.986Z,24.02
2023-03-16T19:01:23.958Z,24.02
2023-03-16T19:02:23.928Z,24.01
2023-03-16T19:03:23.891Z,24.01
2023-03-16T19:04:23.845Z,24.01
2023-03-16T19:05:23.829Z,24.01
2023-03-16T19:06:23.801Z,24.01
2023-03-16T19:07:23.771Z,24.01
2023-03-16T19:08:23.771Z,24.01
2023-03-16T19:09:23.702Z,24.01
2023-03-16T19:10:23.671Z,24.01
2023-03-16T19:11:23.701Z,24.01
2023-03-16T19:12:23.617Z,24.01
2023-03-16T19:13:23.634Z,24.00
2023-03-16T19:14:23.574Z,24.01
2023-03-16T19:15:23.572Z,24.01
2023-03-16T19:16:23.601Z,24.02
2023-03-16T19:17:23.510Z,24.01
2023-03-16T19:18:23.456Z,24.02
2023-03-16T19:19:23.443Z,24.02
2023-03-16T19:20:23.410Z,24.01
2023-03-16T19:21:23.392Z,24.02
2023-03-16T19:22:23.357Z,24.01
2023-03-16T19:23:23.344Z,24.01
2023-03-16T19:24:23.317Z,24.01
2023-03-16T19:25:23.280Z,24.01
2023-03-16T19:26:23.246Z,24.01
2023-03-16T19:27:23.234Z,24.02
2023-03-16T19:28:23.212Z,24.01
2023-03-16T19:29:23.195Z,24.00
2023-03-16T19:30:23.243Z,24.01
2023-03-16T19:31:23.221Z,24.01
2023-03-16T19:32:23.116Z,24.01
2023-03-16T19:33:23.087Z,24.01
2023-03-16T19:34:23.061Z,24.01
2023-03-16T19:35:23.094Z,24.00
2023-03-16T19:36:23.097Z,24.00
2023-03-16T19:37:23.049Z,24.00
2023-03-16T19:38:22.979Z,23.99
2023-03-16T19:39:22.960Z,24.01
2023-03-16T19:40:22.892Z,24.01
2023-03-16T19:41:22.872Z,24.00
2023-03-16T19:42:22.838Z,24.00
2023-03-16T19:43:22.843Z,24.00
2023-03-16T19:44:22.781Z,24.00
2023-03-16T19:45:22.821Z,24.00
2023-03-16T19:46:22.826Z,24.00
2023-03-16T19:47:22.720Z,24.00
2023-03-16T19:48:22.703Z,24.00
2023-03-16T19:49:22.678Z,24.00
2023-03-16T19:50:22.619Z,24.00
2023-03-16T19:51:22.632Z,24.00
2023-03-16T19:52:22.580Z,24.00
2023-03-16T19:53:22.645Z,23.99
2023-03-16T19:54:22.544Z,24.00
2023-03-16T19:55:22.504Z,23.99
2023-03-16T19:56:23.871Z,23.99
2023-03-16T19:57:22.460Z,23.99
2023-03-16T19:58:22.439Z,23.99
2023-03-16T19:59:22.409Z,23.99
2023-03-16T20:00:22.367Z,23.99
2023-03-16T20:01:22.443Z,23.98
2023-03-16T20:02:22.332Z,23.98
2023-03-16T20:03:22.296Z,23.98
2023-03-16T20:04:22.330Z,23.99
2023-03-16T20:05:22.259Z,23.99
2023-03-16T20:06:22.219Z,24.00
2023-03-16T20:07:22.209Z,23.99
2023-03-16T20:08:22.208Z,23.98
2023-03-16T20:09:22.173Z,23.98
2023-03-16T20:10:22.194Z,23.98
2023-03-16T20:11:22.110Z,23.98
2023-03-16T20:12:22.112Z,23.99
2023-03-16T20:13:22.068Z,23.99
2023-03-16T20:14:22.056Z,23.98
2023-03-16T20:15:22.007Z,23.99
2023-03-16T20:16:22.011Z,23.99
2023-03-16T20:17:21.960Z,23.99
2023-03-16T20:18:21.961Z,23.99
2023-03-16T20:19:22.445Z,23.98
2023-03-16T20:20:21.875Z,23.99
2023-03-16T20:21:21.855Z,23.97
2023-03-16T20:22:21.852Z,23.98
2023-03-16T20:23:21.818Z,23.97
2023-03-16T20:24:21.813Z,23.98
2023-03-16T20:25:21.756Z,23.97
2023-03-16T20:26:21.778Z,23.97
2023-03-16T20:27:21.720Z,23.96
2023-03-16T20:28:21.681Z,23.97
2023-03-16T20:29:21.696Z,23.95
2023-03-16T20:30:21.677Z,23.96
2023-03-16T20:31:21.617Z,23.96
2023-03-16T20:32:21.602Z,23.95
2023-03-16T20:33:22.753Z,23.96
2023-03-16T20:34:21.560Z,23.96
2023-03-16T20:35:21.533Z,23.94
2023-03-16T20:36:21.527Z,23.95
2023-03-16T20:37:21.538Z,23.95
2023-03-16T20:38:21.503Z,23.95
2023-03-16T20:39:21.513Z,23.95
2023-03-16T20:40:21.539Z,23.95
2023-03-16T20:41:21.439Z,23.95
2023-03-16T20:42:21.414Z,23.95
2023-03-16T20:43:21.403Z,23.95
2023-03-16T20:44:21.377Z,23.95
2023-03-16T20:45:21.346Z,23.96
2023-03-16T20:46:21.388Z,23.96
2023-03-16T20:47:21.312Z,23.95
2023-03-16T20:48:21.281Z,23.95
2023-03-16T20:49:21.249Z,23.95
2023-03-16T20:50:21.214Z,23.94
2023-03-16T20:51:21.228Z,23.94
2023-03-16T20:52:21.186Z,23.94
2023-03-16T20:53:21.154Z,23.95
2023-03-16T20:54:21.143Z,23.95
2023-03-16T20:55:21.087Z,23.96
2023-03-16T20:56:21.084Z,23.96
2023-03-16T20:57:21.075Z,23.96
2023-03-16T20:58:21.055Z,23.96
2023-03-16T20:59:21.030Z,23.96
2023-03-16T21:00:20.992Z,23.97
2023-03-16T21:01:21.117Z,23.95
2023-03-16T21:02:20.966Z,23.95
2023-03-16T21:03:20.936Z,23.95
2023-03-16T21:04:20.949Z,23.95
2023-03-16T21:05:20.861Z,23.96
2023-03-16T21:06:20.869Z,23.96
2023-03-16T21:07:20.830Z,23.96
2023-03-16T21:08:20.784Z,23.96
2023-03-16T21:09:20.805Z,23.95
2023-03-16T21:10:22.444Z,23.97
2023-03-16T21:11:20.719Z,23.96
2023-03-16T21:12:20.703Z,23.96
2023-03-16T21:13:20.676Z,23.96
2023-03-16T21:14:20.685Z,23.97
2023-03-16T21:15:20.641Z,23.96
2023-03-16T21:16:20.692Z,23.96
2023-03-16T21:17:20.573Z,23.95
2023-03-16T21:18:20.612Z,23.97
2023-03-16T21:19:20.542Z,23.96
2023-03-16T21:20:20.683Z,23.97
2023-03-16T21:21:20.516Z,23.97
2023-03-16T21:22:20.491Z,23.96
2023-03-16T21:23:20.499Z,23.96
2023-03-16T21:24:20.469Z,23.95
2023-03-16T21:25:20.484Z,23.94
2023-03-16T21:26:20.419Z,23.94
2023-03-16T21:27:20.408Z,23.95
2023-03-16T21:28:20.402Z,23.95
2023-03-16T21:29:20.400Z,23.95
2023-03-16T21:30:20.776Z,23.95
2023-03-16T21:31:20.394Z,23.94
2023-03-16T21:32:20.368Z,23.95
2023-03-16T21:33:20.312Z,23.95
2023-03-16T21:34:20.298Z,23.95
2023-03-16T21:35:20.362Z,23.95
2023-03-16T21:36:20.269Z,23.95
2023-03-16T21:37:20.240Z,23.95
2023-03-16T21:38:20.224Z,23.96
2023-03-16T21:39:20.224Z,23.96
2023-03-16T21:40:20.227Z,23.96
2023-03-16T21:41:20.200Z,23.96
2023-03-16T21:42:20.194Z,23.96
2023-03-16T21:43:20.143Z,23.96
2023-03-16T21:44:20.125Z,23.96
2023-03-16T21:45:20.155Z,23.96
2023-03-16T21:46:20.142Z,23.96
2023-03-16T21:47:20.085Z,23.95
2023-03-16T21:48:20.088Z,23.95
2023-03-16T21:49:20.069Z,23.95
2023-03-16T21:50:20.082Z,23.95
2023-03-16T21:51:20.010Z,23.95
2023-03-16T21:52:19.976Z,23.94
2023-03-16T21:53:19.955Z,23.95
2023-03-16T21:54:19.957Z,23.94
2023-03-16T21:55:30.688Z,23.95
2023-03-16T21:56:20.915Z,23.95
2023-03-16T21:57:19.889Z,23.96
2023-03-16T21:58:19.858Z,23.97
2023-03-16T21:59:20.182Z,23.96
2023-03-16T22:00:20.321Z,23.96
2023-03-16T22:01:19.864Z,23.95
2023-03-16T22:02:20.045Z,23.95
2023-03-16T22:03:19.802Z,23.95
2023-03-16T22:04:19.755Z,23.95
2023-03-16T22:05:19.717Z,23.94
2023-03-16T22:06:19.711Z,23.95
2023-03-16T22:07:19.725Z,23.94
2023-03-16T22:08:19.664Z,23.95
2023-03-16T22:09:19.632Z,23.94
2023-03-16T22:10:19.677Z,23.93
2023-03-16T22:11:19.589Z,23.94
2023-03-16T22:12:19.578Z,23.93
2023-03-16T22:13:19.548Z,23.93
2023-03-16T22:14:19.549Z,23.93
2023-03-16T22:15:19.520Z,23.93
2023-03-16T22:16:19.516Z,23.94
2023-03-16T22:17:19.449Z,23.93
2023-03-16T22:18:19.421Z,23.94
2023-03-16T22:19:19.403Z,23.94
2023-03-16T22:20:19.415Z,23.95
2023-03-16T22:21:19.444Z,23.95
2023-03-16T22:22:19.349Z,23.94
2023-03-16T22:23:19.302Z,23.94
2023-03-16T22:24:19.308Z,23.95
2023-03-16T22:25:19.280Z,23.94
2023-03-16T22:26:19.274Z,23.95
2023-03-16T22:27:19.235Z,23.94
2023-03-16T22:28:19.202Z,23.94
2023-03-16T22:29:19.169Z,23.94
2023-03-16T22:30:19.186Z,23.94
2023-03-16T22:31:19.166Z,23.94
2023-03-16T22:32:19.118Z,23.94
2023-03-16T22:33:19.105Z,23.94
2023-03-16T22:34:19.104Z,23.95
2023-03-16T22:35:19.058Z,23.95
2023-03-16T22:36:19.060Z,23.94
2023-03-16T22:37:18.999Z,23.95
2023-03-16T22:38:18.966Z,23.95
2023-03-16T22:39:18.944Z,23.95
2023-03-16T22:40:18.927Z,23.95
2023-03-16T22:41:18.916Z,23.95
2023-03-16T22:42:18.853Z,23.95
2023-03-16T22:43:18.844Z,23.95
2023-03-16T22:44:20.742Z,23.95
2023-03-16T22:45:18.925Z,23.94
2023-03-16T22:46:18.915Z,23.93
2023-03-16T22:47:18.789Z,23.95
2023-03-16T22:48:18.737Z,23.95
2023-03-16T22:49:18.713Z,23.95
2023-03-16T22:50:18.696Z,23.95
2023-03-16T22:51:18.673Z,23.95
2023-03-16T22:52:18.709Z,23.93
2023-03-16T22:53:18.627Z,23.94
2023-03-16T22:54:18.611Z,23.93
2023-03-16T22:55:18.598Z,23.93
2023-03-16T22:56:18.578Z,23.93
2023-03-16T22:57:18.515Z,23.95
2023-03-16T22:58:18.524Z,23.94
2023-03-16T22:59:18.490Z,23.95
2023-03-16T23:00:18.452Z,23.94
2023-03-16T23:01:18.493Z,23.94
2023-03-16T23:02:18.419Z,23.94
2023-03-16T23:03:18.387Z,23.95
2023-03-16T23:04:18.397Z,23.94
2023-03-16T23:05:18.357Z,23.95
2023-03-16T23:06:18.341Z,23.96
2023-03-16T23:07:18.303Z,23.95
2023-03-16T23:08:18.295Z,23.95
2023-03-16T23:09:18.263Z,23.95
2023-03-16T23:10:18.229Z,23.95
2023-03-16T23:11:18.209Z,23.95
2023-03-16T23:12:18.194Z,23.95
2023-03-16T23:13:18.171Z,23.94
2023-03-16T23:14:18.171Z,23.95
2023-03-16T23:15:18.138Z,23.94
2023-03-16T23:16:18.124Z,23.94
2023-03-16T23:17:18.098Z,23.93
2023-03-16T23:18:18.077Z,23.93
2023-03-16T23:19:24.255Z,23.94
2023-03-16T23:20:19.036Z,23.94
2023-03-16T23:21:18.081Z,23.94
2023-03-16T23:22:17.999Z,23.95
2023-03-16T23:23:17.969Z,23.94
2023-03-16T23:24:17.955Z,23.94
2023-03-16T23:25:17.943Z,23.94
2023-03-16T23:26:17.916Z,23.94
2023-03-16T23:27:17.922Z,23.94
2023-03-16T23:28:17.877Z,23.94
2023-03-16T23:29:17.930Z,23.95
2023-03-16T23:30:17.878Z,23.94
2023-03-16T23:31:17.904Z,23.93
2023-03-16T23:32:17.827Z,23.93
2023-03-16T23:33:17.814Z,23.94
2023-03-16T23:34:17.773Z,23.95
2023-03-16T23:35:17.753Z,23.94
2023-03-16T23:36:17.735Z,23.94
2023-03-16T23:37:17.787Z,23.95
2023-03-16T23:38:17.696Z,23.94
2023-03-16T23:39:17.657Z,23.95
2023-03-16T23:40:17.634Z,23.94
2023-03-16T23:41:17.660Z,23.94
2023-03-16T23:42:17.596Z,23.94
2023-03-16T23:43:17.587Z,23.94
2023-03-16T23:44:17.571Z,23.94
2023-03-16T23:45:17.524Z,23.95
2023-03-16T23:46:17.546Z,23.94
2023-03-16T23:47:17.509Z,23.95
2023-03-16T23:48:17.452Z,23.94
2023-03-16T23:49:17.435Z,23.94
2023-03-16T23:50:17.419Z,23.93
2023-03-16T23:51:19.996Z,23.93
2023-03-16T23:52:17.380Z,23.93
2023-03-16T23:53:17.372Z,23.93
2023-03-16T23:54:17.324Z,23.94
2023-03-16T23:55:17.315Z,23.94
2023-03-16T23:56:17.269Z,23.93
2023-03-16T23:57:17.293Z,23.93
2023-03-16T23:58:17.227Z,23.94
2023-03-16T23:59:17.190Z,23.95
